Time;durP1;ratioP1;P1;durP2;ratioP2;P2;SDS_P1;SDS_P2;PMS_P1;PMS_P2;Temp;Humidity;BMP_temperature;BMP_pressure;BME280_temperature;BME280_humidity;BME280_pressure;Samples;Min_cycle;Max_cycle;Signal;HPM_P1;HPM_P2
2022/11/03 00:02:21;;;;;;;20.02;7.50;;;;;;;;;;6312533;22;20525;-85
2022/11/03 00:08:50;;;;;;;19.77;6.85;;;;;;;;;;6311946;22;20196;-86
2022/11/03 00:11:56;;;;;;;35.38;7.38;;;;;;;;;;6313296;22;20211;-86
2022/11/03 00:15:01;;;;;;;20.60;7.18;;;;;;;;;;6312659;22;20497;-85
2022/11/03 00:18:06;;;;;;;17.83;7.88;;;;;;;;;;6311341;22;20169;-85
2022/11/03 00:21:14;;;;;;;21.67;7.97;;;;;;;;;;6312876;22;20173;-85
2022/11/03 00:24:19;;;;;;;17.08;7.97;;;;;;;;;;6311710;22;20499;-85
2022/11/03 00:27:25;;;;;;;16.45;6.85;;;;;;;;;;6314706;22;20575;-84
2022/11/03 00:30:30;;;;;;;17.60;7.45;;;;;;;;;;6317114;22;20177;-85
2022/11/03 00:33:36;;;;;;;23.67;8.23;;;;;;;;;;6327032;22;20192;-85
2022/11/03 00:36:43;;;;;;;39.75;8.25;;;;;;;;;;6315493;22;20174;-86
2022/11/03 00:39:49;;;;;;;25.73;7.53;;;;;;;;;;6313974;22;20165;-86
2022/11/03 00:42:54;;;;;;;31.58;8.02;;;;;;;;;;6312075;22;20168;-86
2022/11/03 00:46:00;;;;;;;25.77;8.38;;;;;;;;;;6313052;22;20247;-86
2022/11/03 00:49:05;;;;;;;26.55;7.72;;;;;;;;;;6312700;22;20227;-86
2022/11/03 00:52:12;;;;;;;35.03;8.57;;;;;;;;;;6312622;22;20204;-86
2022/11/03 00:55:16;;;;;;;27.60;8.20;;;;;;;;;;6311168;22;20172;-86
2022/11/03 00:58:21;;;;;;;33.83;7.47;;;;;;;;;;6312721;22;20235;-86
2022/11/03 01:01:27;;;;;;;55.70;7.90;;;;;;;;;;6313959;22;20204;-86
2022/11/03 01:08:00;;;;;;;48.42;8.13;;;;;;;;;;6313947;22;20169;-86
2022/11/03 01:14:32;;;;;;;20.17;7.75;;;;;;;;;;6312446;22;20208;-86
2022/11/03 01:17:37;;;;;;;15.48;7.07;;;;;;;;;;6313938;22;20499;-86
2022/11/03 01:20:42;;;;;;;20.73;7.32;;;;;;;;;;6313630;22;20218;-86
2022/11/03 01:23:49;;;;;;;15.18;6.80;;;;;;;;;;6316738;22;20242;-86
2022/11/03 01:26:55;;;;;;;18.67;6.88;;;;;;;;;;6313303;22;20191;-86
2022/11/03 01:30:00;;;;;;;13.50;6.72;;;;;;;;;;6313422;22;20197;-86
2022/11/03 01:33:05;;;;;;;16.88;6.40;;;;;;;;;;6327449;22;20273;-85
2022/11/03 01:36:10;;;;;;;18.98;6.45;;;;;;;;;;6314099;22;20169;-85
2022/11/03 01:39:18;;;;;;;33.92;6.65;;;;;;;;;;6313653;22;20172;-85
2022/11/03 01:42:23;;;;;;;35.17;7.50;;;;;;;;;;6314035;22;20168;-85
2022/11/03 01:45:28;;;;;;;65.87;8.10;;;;;;;;;;6314528;22;20180;-85
2022/11/03 01:48:35;;;;;;;17.73;7.70;;;;;;;;;;6313907;22;20231;-85
2022/11/03 01:51:40;;;;;;;28.85;6.93;;;;;;;;;;6317061;22;20169;-85
2022/11/03 01:54:49;;;;;;;20.88;6.68;;;;;;;;;;6316365;22;20172;-85
2022/11/03 01:57:55;;;;;;;22.57;7.10;;;;;;;;;;6317911;22;20172;-85
2022/11/03 02:01:02;;;;;;;20.33;6.93;;;;;;;;;;6325388;22;20180;-85
2022/11/03 02:04:09;;;;;;;14.38;6.72;;;;;;;;;;6328590;22;20222;-85
2022/11/03 02:07:19;;;;;;;15.93;7.15;;;;;;;;;;6330059;22;20177;-85
2022/11/03 02:10:26;;;;;;;12.55;6.40;;;;;;;;;;6329696;22;20220;-85
2022/11/03 02:13:32;;;;;;;11.20;6.55;;;;;;;;;;6330842;22;20172;-85
2022/11/03 02:16:37;;;;;;;11.85;6.20;;;;;;;;;;6330445;22;20205;-86
2022/11/03 02:19:45;;;;;;;19.55;7.07;;;;;;;;;;6330193;22;20208;-85
2022/11/03 02:23:04;;;;;;;16.10;6.20;;;;;;;;;;6334036;22;20212;-86
2022/11/03 02:26:11;;;;;;;15.40;6.32;;;;;;;;;;6334287;22;20161;-85
2022/11/03 02:29:17;;;;;;;12.63;6.70;;;;;;;;;;6333312;22;20204;-85
2022/11/03 02:32:25;;;;;;;16.30;6.50;;;;;;;;;;6333160;22;20180;-85
2022/11/03 02:35:34;;;;;;;16.63;6.10;;;;;;;;;;6323682;22;20236;-85
2022/11/03 02:38:44;;;;;;;15.60;6.10;;;;;;;;;;6321017;22;20168;-85
2022/11/03 02:41:51;;;;;;;32.80;7.07;;;;;;;;;;6320505;22;20173;-85
2022/11/03 02:44:59;;;;;;;13.63;6.20;;;;;;;;;;6322609;22;20180;-84
2022/11/03 02:48:05;;;;;;;11.90;6.43;;;;;;;;;;6332662;22;20153;-85
2022/11/03 02:51:10;;;;;;;17.70;6.20;;;;;;;;;;6333883;22;20361;-85
2022/11/03 02:54:19;;;;;;;13.82;6.72;;;;;;;;;;6332047;22;20179;-86
2022/11/03 02:57:30;;;;;;;13.32;5.72;;;;;;;;;;6333469;22;20176;-85
2022/11/03 03:00:41;;;;;;;10.50;5.63;;;;;;;;;;6333622;22;20180;-84
2022/11/03 03:03:49;;;;;;;11.77;5.70;;;;;;;;;;6332975;22;20169;-84
2022/11/03 03:06:55;;;;;;;22.13;6.03;;;;;;;;;;6333603;22;20149;-85
2022/11/03 03:10:03;;;;;;;11.13;5.77;;;;;;;;;;6334039;22;20251;-84
2022/11/03 03:13:11;;;;;;;13.27;5.78;;;;;;;;;;6331707;22;20153;-85
2022/11/03 03:16:18;;;;;;;8.45;5.38;;;;;;;;;;6333105;22;20192;-84
2022/11/03 03:19:27;;;;;;;7.80;4.60;;;;;;;;;;6332431;22;20152;-85
2022/11/03 03:22:35;;;;;;;9.03;4.77;;;;;;;;;;6333032;22;20279;-84
2022/11/03 03:25:41;;;;;;;7.45;4.35;;;;;;;;;;6332858;22;20157;-84
2022/11/03 03:28:49;;;;;;;11.03;4.47;;;;;;;;;;6332655;22;20188;-84
2022/11/03 03:31:57;;;;;;;6.10;3.80;;;;;;;;;;6332475;22;20197;-85
2022/11/03 03:35:06;;;;;;;10.80;4.30;;;;;;;;;;6313936;22;20216;-85
2022/11/03 03:38:13;;;;;;;8.40;3.87;;;;;;;;;;6313420;22;20218;-84
2022/11/03 03:41:22;;;;;;;10.13;3.87;;;;;;;;;;6313741;22;20169;-84
2022/11/03 03:44:29;;;;;;;8.10;3.77;;;;;;;;;;6313757;22;20177;-85
2022/11/03 03:47:34;;;;;;;9.60;4.00;;;;;;;;;;6312435;22;20274;-85
2022/11/03 03:50:41;;;;;;;7.23;4.10;;;;;;;;;;6311760;22;20270;-85
2022/11/03 03:53:50;;;;;;;7.33;4.20;;;;;;;;;;6311085;22;20408;-85
2022/11/03 03:57:00;;;;;;;8.10;3.80;;;;;;;;;;6311101;22;20562;-85
2022/11/03 04:00:08;;;;;;;6.77;3.70;;;;;;;;;;6311657;22;20180;-85
2022/11/03 04:03:18;;;;;;;7.40;3.90;;;;;;;;;;6318314;22;20224;-85
2022/11/03 04:06:23;;;;;;;7.03;3.43;;;;;;;;;;6318476;22;20307;-85
2022/11/03 04:09:28;;;;;;;9.00;3.33;;;;;;;;;;6319814;22;20276;-85
2022/11/03 04:22:45;;;;;;;6.60;3.47;;;;;;;;;;6311400;22;20505;-84
2022/11/03 04:25:51;;;;;;;4.93;3.00;;;;;;;;;;6311919;22;20272;-86
2022/11/03 04:28:56;;;;;;;11.60;3.40;;;;;;;;;;6317239;22;20557;-85
2022/11/03 04:32:16;;;;;;;8.30;3.57;;;;;;;;;;6313308;22;20168;-86
2022/11/03 04:35:23;;;;;;;8.33;4.07;;;;;;;;;;6313811;22;20426;-86
2022/11/03 04:38:29;;;;;;;11.40;4.17;;;;;;;;;;6313470;22;20176;-86
2022/11/03 04:41:37;;;;;;;9.53;3.83;;;;;;;;;;6313888;22;20541;-86
2022/11/03 04:44:42;;;;;;;8.50;4.07;;;;;;;;;;6316525;22;20181;-85
2022/11/03 04:47:49;;;;;;;13.70;4.10;;;;;;;;;;6313293;22;20172;-85
2022/11/03 04:50:55;;;;;;;9.43;4.97;;;;;;;;;;6313550;22;20250;-86
2022/11/03 04:54:03;;;;;;;6.40;3.90;;;;;;;;;;6312383;22;20243;-85
2022/11/03 04:57:09;;;;;;;6.83;4.00;;;;;;;;;;6312693;22;20173;-85
2022/11/03 05:00:17;;;;;;;10.23;3.53;;;;;;;;;;6312856;22;20169;-85
2022/11/03 05:03:26;;;;;;;8.37;4.17;;;;;;;;;;6313171;22;20620;-85
2022/11/03 05:06:31;;;;;;;10.33;4.03;;;;;;;;;;6313931;22;20169;-85
2022/11/03 05:09:36;;;;;;;10.10;5.17;;;;;;;;;;6312537;22;20254;-85
2022/11/03 05:12:41;;;;;;;8.57;4.10;;;;;;;;;;6311774;22;20173;-85
2022/11/03 05:15:47;;;;;;;8.30;4.40;;;;;;;;;;6312037;22;20173;-85
2022/11/03 05:18:53;;;;;;;9.83;4.23;;;;;;;;;;6312967;22;20172;-85
2022/11/03 05:21:59;;;;;;;9.67;5.33;;;;;;;;;;6311768;22;20173;-86
2022/11/03 05:25:13;;;;;;;11.07;4.87;;;;;;;;;;6312435;22;20177;-85
2022/11/03 05:28:21;;;;;;;10.13;5.37;;;;;;;;;;6312782;22;20193;-85
2022/11/03 05:31:29;;;;;;;9.83;5.00;;;;;;;;;;6311900;22;20169;-85
2022/11/03 05:34:42;;;;;;;9.30;4.10;;;;;;;;;;6311983;22;20174;-85
2022/11/03 05:37:47;;;;;;;10.43;5.37;;;;;;;;;;6313383;22;20178;-85
2022/11/03 05:40:53;;;;;;;14.67;4.67;;;;;;;;;;6314290;22;20164;-86
2022/11/03 05:43:59;;;;;;;12.03;4.93;;;;;;;;;;6311952;22;20464;-86
2022/11/03 05:47:10;;;;;;;17.77;5.20;;;;;;;;;;6312831;22;20211;-86
2022/11/03 05:50:20;;;;;;;9.63;4.80;;;;;;;;;;6312788;22;20607;-85
2022/11/03 05:53:27;;;;;;;10.13;4.30;;;;;;;;;;6313763;22;20192;-85
2022/11/03 05:56:34;;;;;;;8.23;4.37;;;;;;;;;;6314045;22;20395;-85
2022/11/03 05:59:39;;;;;;;8.57;4.30;;;;;;;;;;6312730;22;20215;-85
2022/11/03 06:02:44;;;;;;;8.80;4.23;;;;;;;;;;6313884;22;20176;-86
2022/11/03 06:05:51;;;;;;;10.23;4.53;;;;;;;;;;6312996;22;20169;-85
2022/11/03 06:08:56;;;;;;;7.57;4.00;;;;;;;;;;6313354;22;20219;-86
2022/11/03 06:12:03;;;;;;;10.63;4.40;;;;;;;;;;6314263;22;20180;-86
2022/11/03 06:15:11;;;;;;;8.40;4.93;;;;;;;;;;6312810;22;20169;-84
2022/11/03 06:18:17;;;;;;;13.57;4.87;;;;;;;;;;6312974;22;20303;-85
2022/11/03 06:21:26;;;;;;;18.47;4.90;;;;;;;;;;6313025;22;20208;-86
2022/11/03 06:24:32;;;;;;;15.60;5.23;;;;;;;;;;6312136;22;20397;-87
2022/11/03 06:27:38;;;;;;;12.93;5.40;;;;;;;;;;6311993;22;20193;-85
2022/11/03 06:30:43;;;;;;;9.90;5.30;;;;;;;;;;6312765;22;20201;-86
2022/11/03 06:33:51;;;;;;;12.23;5.40;;;;;;;;;;6311219;22;20247;-85
2022/11/03 06:37:02;;;;;;;31.87;6.00;;;;;;;;;;6314672;22;20177;-86
2022/11/03 06:40:30;;;;;;;13.20;5.50;;;;;;;;;;6313369;22;20394;-86
2022/11/03 06:43:38;;;;;;;20.10;4.90;;;;;;;;;;6311943;22;20204;-87
2022/11/03 06:46:44;;;;;;;10.33;5.23;;;;;;;;;;6312855;22;20177;-85
2022/11/03 06:49:49;;;;;;;16.60;5.43;;;;;;;;;;6312967;22;20720;-86
2022/11/03 06:53:10;;;;;;;14.60;5.43;;;;;;;;;;6313218;22;20280;-85
2022/11/03 06:56:20;;;;;;;10.03;5.10;;;;;;;;;;6313810;22;20413;-84
2022/11/03 06:59:25;;;;;;;8.87;4.70;;;;;;;;;;6313316;22;20177;-86
2022/11/03 07:02:51;;;;;;;10.52;4.50;;;;;;;;;;6311742;22;20172;-85
2022/11/03 07:05:57;;;;;;;14.13;5.43;;;;;;;;;;6313799;22;20239;-85
2022/11/03 07:09:05;;;;;;;12.03;4.27;;;;;;;;;;6312577;22;20169;-86
2022/11/03 07:12:14;;;;;;;26.03;5.27;;;;;;;;;;6312197;22;20259;-85
2022/11/03 07:15:29;;;;;;;19.37;8.77;;;;;;;;;;6311725;22;20415;-85
2022/11/03 07:18:35;;;;;;;20.70;9.83;;;;;;;;;;6313265;22;20510;-85
2022/11/03 07:21:42;;;;;;;9.70;5.03;;;;;;;;;;6313462;22;20169;-87
2022/11/03 07:24:47;;;;;;;17.97;5.43;;;;;;;;;;6312206;22;20169;-86
2022/11/03 07:27:56;;;;;;;8.65;4.80;;;;;;;;;;6312659;22;20193;-85
2022/11/03 07:31:02;;;;;;;9.25;4.35;;;;;;;;;;6313306;22;20587;-86
2022/11/03 07:34:14;;;;;;;7.03;3.85;;;;;;;;;;6312464;22;20176;-86
2022/11/03 07:37:19;;;;;;;10.53;4.20;;;;;;;;;;6312479;22;20584;-85
2022/11/03 07:40:26;;;;;;;10.00;3.83;;;;;;;;;;6312469;22;20394;-86
2022/11/03 07:43:37;;;;;;;7.20;3.88;;;;;;;;;;6311561;22;20177;-86
2022/11/03 07:46:43;;;;;;;7.78;3.70;;;;;;;;;;6312593;22;20173;-85
2022/11/03 07:49:48;;;;;;;6.47;4.00;;;;;;;;;;6312298;22;20193;-86
2022/11/03 07:52:53;;;;;;;20.83;9.80;;;;;;;;;;6311017;22;20430;-84
2022/11/03 07:55:59;;;;;;;6.83;4.40;;;;;;;;;;6312970;22;20454;-85
2022/11/03 07:59:12;;;;;;;31.02;16.40;;;;;;;;;;6312993;22;20529;-85
2022/11/03 08:02:26;;;;;;;17.57;8.77;;;;;;;;;;6312248;22;20181;-86
2022/11/03 08:05:32;;;;;;;14.55;8.35;;;;;;;;;;6312231;22;20219;-85
2022/11/03 08:08:37;;;;;;;12.63;7.80;;;;;;;;;;6311216;22;20363;-85
2022/11/03 08:11:42;;;;;;;17.77;5.80;;;;;;;;;;6313463;22;20196;-86
2022/11/03 08:14:49;;;;;;;21.15;5.60;;;;;;;;;;6312483;22;20291;-85
2022/11/03 08:17:54;;;;;;;15.10;4.68;;;;;;;;;;6315568;22;20535;-85
2022/11/03 08:21:00;;;;;;;10.93;5.25;;;;;;;;;;6312485;22;20211;-87
2022/11/03 08:24:06;;;;;;;12.50;5.53;;;;;;;;;;6312380;22;20196;-85
2022/11/03 08:27:11;;;;;;;14.30;4.93;;;;;;;;;;6312585;22;20173;-86
2022/11/03 08:30:18;;;;;;;13.00;5.18;;;;;;;;;;6311735;22;20195;-86
2022/11/03 08:33:23;;;;;;;11.45;5.53;;;;;;;;;;6312375;22;20541;-85
2022/11/03 08:36:28;;;;;;;13.50;5.13;;;;;;;;;;6313826;22;20200;-85
2022/11/03 08:39:34;;;;;;;16.42;5.88;;;;;;;;;;6312815;22;20177;-85
2022/11/03 08:42:41;;;;;;;14.23;6.28;;;;;;;;;;6330585;22;20189;-86
2022/11/03 08:45:52;;;;;;;43.40;24.70;;;;;;;;;;6311607;22;20223;-84
2022/11/03 08:48:58;;;;;;;11.13;5.50;;;;;;;;;;6313241;22;20181;-84
2022/11/03 08:52:04;;;;;;;10.43;4.22;;;;;;;;;;6313308;22;20192;-85
2022/11/03 08:55:11;;;;;;;15.73;5.60;;;;;;;;;;6313707;22;20165;-85
2022/11/03 08:58:17;;;;;;;11.20;5.15;;;;;;;;;;6314148;22;20192;-85
2022/11/03 09:01:24;;;;;;;13.77;5.70;;;;;;;;;;6315105;22;20212;-85
2022/11/03 09:04:36;;;;;;;15.55;5.90;;;;;;;;;;6314144;22;20176;-86
2022/11/03 09:07:42;;;;;;;15.27;5.38;;;;;;;;;;6312918;22;20192;-86
2022/11/03 09:10:48;;;;;;;15.57;6.00;;;;;;;;;;6316059;22;20267;-87
2022/11/03 09:13:54;;;;;;;20.60;6.00;;;;;;;;;;6313814;22;20248;-85
2022/11/03 09:17:02;;;;;;;10.88;5.63;;;;;;;;;;6319393;22;20424;-87
2022/11/03 09:20:08;;;;;;;17.77;5.88;;;;;;;;;;6317781;22;20575;-86
2022/11/03 09:23:14;;;;;;;13.45;4.60;;;;;;;;;;6332222;22;20181;-87
2022/11/03 09:26:19;;;;;;;11.10;5.22;;;;;;;;;;6314800;22;20173;-87
2022/11/03 09:29:25;;;;;;;9.10;3.97;;;;;;;;;;6330505;22;20189;-86
2022/11/03 09:32:33;;;;;;;7.05;3.75;;;;;;;;;;6315837;22;20272;-86
2022/11/03 09:35:38;;;;;;;6.88;2.95;;;;;;;;;;6315506;22;20223;-85
2022/11/03 09:38:43;;;;;;;13.80;4.40;;;;;;;;;;6314628;22;20178;-86
2022/11/03 09:41:49;;;;;;;10.50;3.95;;;;;;;;;;6319955;22;20580;-86
2022/11/03 09:44:54;;;;;;;14.52;4.20;;;;;;;;;;6320437;22;20173;-87
2022/11/03 09:48:02;;;;;;;7.88;3.33;;;;;;;;;;6320367;22;20219;-87
2022/11/03 09:51:10;;;;;;;18.10;7.47;;;;;;;;;;6319806;22;20220;-86
2022/11/03 09:54:17;;;;;;;15.18;5.75;;;;;;;;;;6330484;22;20276;-86
2022/11/03 09:57:22;;;;;;;14.55;4.47;;;;;;;;;;6315447;22;20176;-86
2022/11/03 10:00:28;;;;;;;9.50;4.18;;;;;;;;;;6316684;22;20243;-87
2022/11/03 10:03:37;;;;;;;10.05;3.55;;;;;;;;;;6313064;22;20226;-85
2022/11/03 10:06:43;;;;;;;9.50;3.33;;;;;;;;;;6315357;22;20200;-86
2022/11/03 10:09:50;;;;;;;13.88;3.60;;;;;;;;;;6316428;22;20195;-86
2022/11/03 10:12:58;;;;;;;14.90;3.00;;;;;;;;;;6316056;22;20170;-85
2022/11/03 10:16:04;;;;;;;10.82;3.70;;;;;;;;;;6315164;22;20173;-86
2022/11/03 10:19:13;;;;;;;9.15;3.42;;;;;;;;;;6314873;22;20169;-86
2022/11/03 10:22:19;;;;;;;7.20;3.08;;;;;;;;;;6314333;22;20185;-86
2022/11/03 10:25:42;;;;;;;6.80;2.83;;;;;;;;;;6315336;22;20406;-87
2022/11/03 10:29:00;;;;;;;9.63;3.00;;;;;;;;;;6314042;22;20473;-86
2022/11/03 10:32:28;;;;;;;7.55;2.95;;;;;;;;;;6316636;22;20216;-87
2022/11/03 10:35:40;;;;;;;13.80;6.38;;;;;;;;;;6315621;22;20173;-86
2022/11/03 10:38:46;;;;;;;22.10;9.30;;;;;;;;;;6313452;22;20177;-86
2022/11/03 10:41:57;;;;;;;8.30;3.85;;;;;;;;;;6313561;22;20391;-87
2022/11/03 10:45:13;;;;;;;9.88;3.80;;;;;;;;;;6315248;22;20251;-86
2022/11/03 10:48:19;;;;;;;8.27;3.30;;;;;;;;;;6314726;22;20469;-87
2022/11/03 10:51:27;;;;;;;10.65;4.75;;;;;;;;;;6314797;22;20603;-87
2022/11/03 10:54:34;;;;;;;8.45;3.60;;;;;;;;;;6314333;22;20231;-86
2022/11/03 10:57:39;;;;;;;11.82;4.50;;;;;;;;;;6314402;22;20176;-87
2022/11/03 11:00:44;;;;;;;9.60;3.78;;;;;;;;;;6316692;22;20263;-86
2022/11/03 11:03:50;;;;;;;12.63;3.83;;;;;;;;;;6332443;22;20169;-87
2022/11/03 11:06:57;;;;;;;12.57;3.60;;;;;;;;;;6313865;22;20185;-86
2022/11/03 11:10:06;;;;;;;10.27;3.65;;;;;;;;;;6313452;22;20169;-86
2022/11/03 11:13:25;;;;;;;8.55;3.33;;;;;;;;;;6312411;22;20411;-87
2022/11/03 11:16:46;;;;;;;9.27;2.97;;;;;;;;;;6312987;22;20181;-86
2022/11/03 11:20:10;;;;;;;8.27;3.80;;;;;;;;;;6315871;22;20177;-87
2022/11/03 11:23:51;;;;;;;13.85;3.33;;;;;;;;;;6316832;22;20165;-86
2022/11/03 11:26:58;;;;;;;13.13;3.85;;;;;;;;;;6318985;22;20169;-87
2022/11/03 11:30:06;;;;;;;13.07;3.35;;;;;;;;;;6318682;22;20207;-86
2022/11/03 11:33:16;;;;;;;7.45;3.70;;;;;;;;;;6313199;22;20218;-86
2022/11/03 11:36:27;;;;;;;11.93;3.72;;;;;;;;;;6313781;22;20177;-89
2022/11/03 11:39:46;;;;;;;9.85;4.10;;;;;;;;;;6315964;22;20287;-88
2022/11/03 11:46:42;;;;;;;9.07;3.50;;;;;;;;;;6321008;22;20180;-87
2022/11/03 11:49:48;;;;;;;13.77;3.58;;;;;;;;;;6319689;22;20241;-87
2022/11/03 11:52:58;;;;;;;8.40;3.78;;;;;;;;;;6321599;22;20173;-87
2022/11/03 11:56:03;;;;;;;13.65;3.67;;;;;;;;;;6319509;22;20196;-87
2022/11/03 11:59:15;;;;;;;12.25;3.70;;;;;;;;;;6322850;22;20172;-89
2022/11/03 12:02:26;;;;;;;10.65;3.97;;;;;;;;;;6320106;22;20529;-87
2022/11/03 12:05:32;;;;;;;8.32;3.42;;;;;;;;;;6319659;22;20529;-87
2022/11/03 12:08:38;;;;;;;9.77;3.53;;;;;;;;;;6315678;22;20180;-86
2022/11/03 12:11:45;;;;;;;12.52;5.60;;;;;;;;;;6311423;22;20397;-86
2022/11/03 12:14:52;;;;;;;8.90;4.00;;;;;;;;;;6315790;22;20176;-86
2022/11/03 12:18:01;;;;;;;7.45;4.57;;;;;;;;;;6313195;22;20173;-87
2022/11/03 12:21:10;;;;;;;12.00;4.43;;;;;;;;;;6312965;22;20173;-88
2022/11/03 12:24:35;;;;;;;10.23;4.47;;;;;;;;;;6312805;22;20196;-87
2022/11/03 12:27:42;;;;;;;9.07;4.13;;;;;;;;;;6320354;22;20189;-87
2022/11/03 12:30:49;;;;;;;9.05;3.90;;;;;;;;;;6320559;22;20244;-87
2022/11/03 12:33:58;;;;;;;8.85;3.92;;;;;;;;;;6314315;22;20172;-87
2022/11/03 12:37:03;;;;;;;7.35;3.63;;;;;;;;;;6313568;22;20173;-87
2022/11/03 12:40:09;;;;;;;10.20;3.85;;;;;;;;;;6313930;22;20215;-86
2022/11/03 12:43:18;;;;;;;21.02;4.32;;;;;;;;;;6311666;22;20239;-87
2022/11/03 12:46:23;;;;;;;18.45;4.60;;;;;;;;;;6312971;22;20177;-87
2022/11/03 12:49:30;;;;;;;13.65;3.70;;;;;;;;;;6311844;22;20247;-89
2022/11/03 12:52:35;;;;;;;11.10;3.67;;;;;;;;;;6312224;22;20193;-87
2022/11/03 12:55:41;;;;;;;9.55;3.58;;;;;;;;;;6313802;22;20169;-87
2022/11/03 12:58:46;;;;;;;11.85;3.08;;;;;;;;;;6314124;22;20185;-87
2022/11/03 13:01:52;;;;;;;9.18;3.53;;;;;;;;;;6315606;22;20249;-87
2022/11/03 13:04:59;;;;;;;10.18;3.38;;;;;;;;;;6314054;22;20339;-87
2022/11/03 13:08:07;;;;;;;8.00;3.10;;;;;;;;;;6313497;22;20265;-87
2022/11/03 13:14:35;;;;;;;8.07;3.22;;;;;;;;;;6313402;22;20177;-86
2022/11/03 13:17:41;;;;;;;11.00;3.40;;;;;;;;;;6317295;22;20173;-88
2022/11/03 13:20:49;;;;;;;16.70;5.85;;;;;;;;;;6317567;22;20180;-87
2022/11/03 13:23:55;;;;;;;12.85;5.43;;;;;;;;;;6314502;22;20203;-85
2022/11/03 13:26:59;;;;;;;16.95;4.40;;;;;;;;;;6314153;22;20291;-87
2022/11/03 13:30:06;;;;;;;13.23;3.70;;;;;;;;;;6313345;22;20168;-89
2022/11/03 13:33:12;;;;;;;6.85;3.25;;;;;;;;;;6330661;22;20197;-88
2022/11/03 13:36:19;;;;;;;10.02;3.80;;;;;;;;;;6315113;22;20177;-89
2022/11/03 13:39:24;;;;;;;15.93;5.78;;;;;;;;;;6315551;22;20177;-88
2022/11/03 13:42:30;;;;;;;14.23;6.45;;;;;;;;;;6314215;22;20177;-88
2022/11/03 13:45:35;;;;;;;10.15;4.22;;;;;;;;;;6315846;22;20177;-88
2022/11/03 13:48:40;;;;;;;15.23;5.18;;;;;;;;;;6314197;22;20184;-88
2022/11/03 13:51:47;;;;;;;20.70;6.45;;;;;;;;;;6314015;22;20192;-87
2022/11/03 13:55:01;;;;;;;25.95;10.05;;;;;;;;;;6313956;22;20185;-88
2022/11/03 13:58:08;;;;;;;11.65;5.15;;;;;;;;;;6313962;22;20189;-88
2022/11/03 14:01:15;;;;;;;19.20;7.70;;;;;;;;;;6315971;22;20289;-88
2022/11/03 14:04:21;;;;;;;20.02;7.80;;;;;;;;;;6314670;22;20208;-85
2022/11/03 14:07:30;;;;;;;13.85;5.30;;;;;;;;;;6313992;22;20176;-88
2022/11/03 14:10:39;;;;;;;17.10;6.18;;;;;;;;;;6315702;22;20416;-88
2022/11/03 14:13:47;;;;;;;18.55;6.47;;;;;;;;;;6316104;22;20240;-87
2022/11/03 14:16:54;;;;;;;10.18;4.53;;;;;;;;;;6316488;22;20203;-89
2022/11/03 14:20:01;;;;;;;13.52;4.43;;;;;;;;;;6316889;22;20173;-87
2022/11/03 14:23:08;;;;;;;15.38;5.47;;;;;;;;;;6334253;22;20240;-87
2022/11/03 14:26:13;;;;;;;10.43;3.95;;;;;;;;;;6313488;22;20173;-88
2022/11/03 14:29:19;;;;;;;10.57;4.10;;;;;;;;;;6313692;22;20548;-88
2022/11/03 14:32:25;;;;;;;12.80;4.35;;;;;;;;;;6313309;22;20196;-88
2022/11/03 14:35:30;;;;;;;21.90;6.50;;;;;;;;;;6334450;22;20173;-87
2022/11/03 14:38:37;;;;;;;69.82;22.65;;;;;;;;;;6318207;22;20192;-87
2022/11/03 14:45:06;;;;;;;15.15;3.90;;;;;;;;;;6319832;22;20211;-88
2022/11/03 14:48:12;;;;;;;9.23;4.10;;;;;;;;;;6317162;22;20172;-87
2022/11/03 14:51:20;;;;;;;10.40;4.57;;;;;;;;;;6313266;22;20188;-86
2022/11/03 14:54:29;;;;;;;11.60;5.20;;;;;;;;;;6318627;22;20212;-88
2022/11/03 14:57:35;;;;;;;11.93;4.13;;;;;;;;;;6313455;22;20227;-87
2022/11/03 15:00:41;;;;;;;13.18;4.18;;;;;;;;;;6312810;22;20188;-89
2022/11/03 15:03:47;;;;;;;13.68;4.75;;;;;;;;;;6312683;22;20169;-86
2022/11/03 15:06:52;;;;;;;16.83;5.20;;;;;;;;;;6313793;22;20240;-87
2022/11/03 15:10:01;;;;;;;24.00;5.85;;;;;;;;;;6313004;22;20405;-87
2022/11/03 15:13:06;;;;;;;33.60;8.52;;;;;;;;;;6315536;22;20235;-88
2022/11/03 15:16:12;;;;;;;9.95;4.63;;;;;;;;;;6313722;22;20528;-87
2022/11/03 15:19:17;;;;;;;12.75;4.25;;;;;;;;;;6313700;22;20232;-88
2022/11/03 15:22:22;;;;;;;10.02;4.10;;;;;;;;;;6312234;22;20165;-87
2022/11/03 15:25:33;;;;;;;17.80;4.57;;;;;;;;;;6313565;22;20251;-88
2022/11/03 15:28:38;;;;;;;12.57;4.43;;;;;;;;;;6314396;22;20212;-88
2022/11/03 15:31:44;;;;;;;9.65;4.43;;;;;;;;;;6317099;22;20631;-89
2022/11/03 15:35:05;;;;;;;89.13;30.73;;;;;;;;;;6323907;22;20176;-89
2022/11/03 15:38:11;;;;;;;16.77;6.32;;;;;;;;;;6313918;22;20574;-89
2022/11/03 15:41:30;;;;;;;14.35;4.82;;;;;;;;;;6315042;22;20486;-87
2022/11/03 15:44:38;;;;;;;9.13;4.47;;;;;;;;;;6312273;22;20205;-88
2022/11/03 15:47:44;;;;;;;15.63;6.43;;;;;;;;;;6313956;22;20219;-88
2022/11/03 15:50:51;;;;;;;12.75;5.25;;;;;;;;;;6314005;22;20276;-89
2022/11/03 15:53:58;;;;;;;16.33;7.47;;;;;;;;;;6311564;22;20212;-88
2022/11/03 15:57:06;;;;;;;22.42;8.60;;;;;;;;;;6318194;22;20275;-87
2022/11/03 16:00:12;;;;;;;22.23;8.68;;;;;;;;;;6318006;22;20401;-88
2022/11/03 16:03:20;;;;;;;16.52;7.57;;;;;;;;;;6314829;22;20169;-87
2022/11/03 16:06:27;;;;;;;15.93;7.72;;;;;;;;;;6315948;22;20207;-87
2022/11/03 16:09:33;;;;;;;19.85;8.77;;;;;;;;;;6315008;22;20235;-88
2022/11/03 16:12:43;;;;;;;21.90;8.45;;;;;;;;;;6314914;22;20204;-88
2022/11/03 16:15:49;;;;;;;21.60;7.80;;;;;;;;;;6314546;22;20169;-86
2022/11/03 16:18:54;;;;;;;24.38;9.73;;;;;;;;;;6316271;22;20176;-87
2022/11/03 16:22:00;;;;;;;20.00;8.93;;;;;;;;;;6320441;22;20208;-85
2022/11/03 16:25:10;;;;;;;21.48;8.05;;;;;;;;;;6318952;22;20176;-88
2022/11/03 16:28:17;;;;;;;23.27;8.05;;;;;;;;;;6316374;22;20242;-87
2022/11/03 16:31:23;;;;;;;66.03;30.60;;;;;;;;;;6313968;22;20188;-86
2022/11/03 16:34:32;;;;;;;23.90;10.18;;;;;;;;;;6313952;22;20237;-86
2022/11/03 16:37:38;;;;;;;22.75;8.95;;;;;;;;;;6313928;22;20172;-87
2022/11/03 16:40:43;;;;;;;18.95;8.57;;;;;;;;;;6314205;22;20229;-86
2022/11/03 16:43:50;;;;;;;17.83;9.52;;;;;;;;;;6314285;22;20185;-88
2022/11/03 16:46:55;;;;;;;28.77;12.18;;;;;;;;;;6313893;22;20169;-87
2022/11/03 16:50:00;;;;;;;21.55;10.63;;;;;;;;;;6313259;22;20288;-87
2022/11/03 16:53:07;;;;;;;21.00;8.52;;;;;;;;;;6313010;22;20193;-86
2022/11/03 16:56:13;;;;;;;21.95;7.82;;;;;;;;;;6312760;22;20274;-88
2022/11/03 16:59:22;;;;;;;59.33;24.80;;;;;;;;;;6313888;22;20177;-87
2022/11/03 17:02:28;;;;;;;61.78;23.15;;;;;;;;;;6313277;22;20327;-86
2022/11/03 17:05:33;;;;;;;23.40;9.35;;;;;;;;;;6335526;22;20181;-86
2022/11/03 17:08:39;;;;;;;19.63;9.00;;;;;;;;;;6314796;22;20214;-87
2022/11/03 17:11:45;;;;;;;18.30;8.93;;;;;;;;;;6314502;22;20177;-87
2022/11/03 17:14:52;;;;;;;18.42;8.77;;;;;;;;;;6314436;22;20453;-88
2022/11/03 17:17:58;;;;;;;22.80;8.68;;;;;;;;;;6315781;22;20173;-87
2022/11/03 17:21:04;;;;;;;18.10;7.65;;;;;;;;;;6318580;22;20223;-88
2022/11/03 17:24:12;;;;;;;25.90;12.32;;;;;;;;;;6317837;22;20172;-87
2022/11/03 17:27:19;;;;;;;27.38;12.90;;;;;;;;;;6321884;22;20204;-87
2022/11/03 17:30:27;;;;;;;26.85;11.00;;;;;;;;;;6321622;22;20223;-86
2022/11/03 17:33:37;;;;;;;20.63;9.18;;;;;;;;;;6322863;22;20327;-87
2022/11/03 17:36:44;;;;;;;27.63;12.90;;;;;;;;;;6333162;22;20204;-86
2022/11/03 17:39:50;;;;;;;19.08;9.40;;;;;;;;;;6332681;22;20181;-87
2022/11/03 17:42:55;;;;;;;22.13;9.30;;;;;;;;;;6333166;22;20161;-87
2022/11/03 17:46:04;;;;;;;22.13;9.52;;;;;;;;;;6329544;22;20175;-88
2022/11/03 17:49:11;;;;;;;15.40;7.95;;;;;;;;;;6333156;22;20173;-88
2022/11/03 17:52:22;;;;;;;19.83;8.82;;;;;;;;;;6332266;22;20599;-87
2022/11/03 17:55:42;;;;;;;22.17;9.18;;;;;;;;;;6331805;22;20161;-87
2022/11/03 17:58:47;;;;;;;23.70;10.68;;;;;;;;;;6325846;22;20170;-87
2022/11/03 18:01:57;;;;;;;26.13;11.43;;;;;;;;;;6321446;22;20184;-87
2022/11/03 18:05:14;;;;;;;30.05;10.52;;;;;;;;;;6322080;22;20169;-87
2022/11/03 18:08:21;;;;;;;27.55;10.45;;;;;;;;;;6330116;22;20178;-87
2022/11/03 18:14:53;;;;;;;22.77;10.23;;;;;;;;;;6333617;22;20156;-87
2022/11/03 18:18:02;;;;;;;22.88;9.98;;;;;;;;;;6334066;22;20169;-88
2022/11/03 18:21:12;;;;;;;26.40;10.60;;;;;;;;;;6334298;22;20192;-88
2022/11/03 18:24:22;;;;;;;19.00;9.40;;;;;;;;;;6333216;22;20198;-87
2022/11/03 18:27:28;;;;;;;19.88;9.50;;;;;;;;;;6334079;22;20153;-87
2022/11/03 18:30:34;;;;;;;18.92;9.20;;;;;;;;;;6333204;22;20245;-86
2022/11/03 18:33:42;;;;;;;19.20;9.48;;;;;;;;;;6333405;22;20205;-87
2022/11/03 18:36:49;;;;;;;20.65;10.27;;;;;;;;;;6332624;22;20219;-88
2022/11/03 18:39:55;;;;;;;18.50;9.25;;;;;;;;;;6334092;22;20149;-88
2022/11/03 18:43:02;;;;;;;23.83;10.93;;;;;;;;;;6333438;22;20165;-88
2022/11/03 18:46:08;;;;;;;47.88;20.02;;;;;;;;;;6350769;22;20149;-87
2022/11/03 18:49:17;;;;;;;41.90;20.17;;;;;;;;;;6333630;22;20149;-86
2022/11/03 18:52:23;;;;;;;23.77;10.00;;;;;;;;;;6333582;22;20168;-87
2022/11/03 18:55:29;;;;;;;19.17;8.40;;;;;;;;;;6334318;22;20153;-87
2022/11/03 18:58:36;;;;;;;18.92;8.73;;;;;;;;;;6332005;22;20154;-87
2022/11/03 19:01:44;;;;;;;21.08;8.88;;;;;;;;;;6351596;22;20165;-88
2022/11/03 19:04:51;;;;;;;19.13;8.75;;;;;;;;;;6333218;22;20165;-87